Time;durP1;ratioP1;P1;durP2;ratioP2;P2;SDS_P1;SDS_P2;PMS_P1;PMS_P2;Temp;Humidity;BMP_temperature;BMP_pressure;BME280_temperature;BME280_humidity;BME280_pressure;Samples;Min_cycle;Max_cycle;Signal;HPM_P1;HPM_P2
2023/09/17 00:02:44;;;;;;;21.58;11.32;;;12.90;99.90;;;;;;10291756;28;20292;-86
2023/09/17 00:07:46;;;;;;;23.05;11.90;;;12.80;99.90;;;;;;10290289;28;20350;-86
2023/09/17 00:12:53;;;;;;;16.90;11.45;;;12.80;99.90;;;;;;10290401;28;20708;-86
2023/09/17 00:17:56;;;;;;;17.38;12.00;;;12.80;99.90;;;;;;10290201;28;20243;-86
2023/09/17 00:22:59;;;;;;;26.70;13.40;;;12.80;99.90;;;;;;10290163;28;20750;-86
2023/09/17 00:28:02;;;;;;;17.23;12.45;;;12.80;99.90;;;;;;10288787;28;20650;-86
2023/09/17 00:33:05;;;;;;;16.38;12.27;;;12.80;99.90;;;;;;10290228;28;20339;-86
2023/09/17 00:38:09;;;;;;;20.25;12.70;;;12.70;99.90;;;;;;10290485;28;20331;-86
2023/09/17 00:43:12;;;;;;;14.70;12.15;;;12.70;99.90;;;;;;10289819;28;20249;-86
2023/09/17 00:48:14;;;;;;;15.73;12.00;;;12.80;99.90;;;;;;10288515;28;20241;-86
2023/09/17 00:53:17;;;;;;;19.67;12.30;;;12.70;99.90;;;;;;10288302;28;20280;-86
2023/09/17 00:58:21;;;;;;;19.55;13.75;;;12.70;99.90;;;;;;10271559;28;20266;-86
2023/09/17 01:03:24;;;;;;;15.93;12.85;;;12.70;99.90;;;;;;10289481;28;20233;-86
2023/09/17 01:08:27;;;;;;;20.65;13.90;;;12.70;99.90;;;;;;10303187;28;20268;-86
2023/09/17 01:13:31;;;;;;;18.20;14.40;;;12.70;99.90;;;;;;10287036;28;20257;-86
2023/09/17 01:18:34;;;;;;;16.13;12.65;;;12.70;99.90;;;;;;10287610;28;20655;-86
2023/09/17 01:24:18;;;;;;;19.10;13.07;;;12.60;99.90;;;;;;10288849;28;20237;-86
2023/09/17 01:29:22;;;;;;;15.20;11.63;;;12.60;99.90;;;;;;10300517;28;20232;-86
2023/09/17 01:34:25;;;;;;;17.40;12.03;;;12.50;99.90;;;;;;10288303;28;20304;-86
2023/09/17 01:39:35;;;;;;;18.02;13.75;;;12.40;99.90;;;;;;10285202;28;20237;-86
2023/09/17 01:44:38;;;;;;;18.17;13.15;;;12.40;99.90;;;;;;10286505;28;20288;-86
2023/09/17 01:49:42;;;;;;;18.43;14.37;;;12.40;99.90;;;;;;10286286;28;20260;-86
2023/09/17 01:54:45;;;;;;;15.82;13.35;;;12.50;99.90;;;;;;10287461;28;20241;-86
2023/09/17 01:59:48;;;;;;;18.57;14.73;;;12.40;99.90;;;;;;10268213;28;20237;-86
2023/09/17 02:04:50;;;;;;;17.43;13.53;;;12.40;99.90;;;;;;10286214;28;20256;-86
2023/09/17 02:09:53;;;;;;;21.08;14.75;;;12.40;99.90;;;;;;10285643;28;20315;-86
2023/09/17 02:14:55;;;;;;;23.83;14.80;;;12.40;99.90;;;;;;10301235;28;20265;-86
2023/09/17 02:19:58;;;;;;;22.38;15.18;;;12.30;99.90;;;;;;10285516;28;20260;-86
2023/09/17 02:25:01;;;;;;;21.90;14.47;;;12.30;99.90;;;;;;10285009;28;20327;-86
2023/09/17 02:30:04;;;;;;;24.43;15.30;;;12.20;99.90;;;;;;10284839;28;20233;-86
2023/09/17 02:35:08;;;;;;;30.50;15.07;;;12.30;99.90;;;;;;10284408;28;20233;-85
2023/09/17 02:40:11;;;;;;;19.87;14.67;;;12.20;99.90;;;;;;10286286;28;20697;-86
2023/09/17 02:45:13;;;;;;;17.77;14.20;;;12.10;99.90;;;;;;10285813;28;20261;-86
2023/09/17 02:50:16;;;;;;;20.02;15.60;;;12.10;99.90;;;;;;10284713;28;20296;-86
2023/09/17 02:55:18;;;;;;;19.13;15.17;;;12.00;99.90;;;;;;10284424;28;20296;-86
2023/09/17 03:00:21;;;;;;;20.17;16.13;;;11.80;99.90;;;;;;10284479;28;20777;-86
2023/09/17 03:05:24;;;;;;;22.03;14.43;;;11.90;99.90;;;;;;10284773;28;20703;-86
2023/09/17 03:10:28;;;;;;;21.67;15.27;;;11.90;99.90;;;;;;10283684;28;20264;-87
2023/09/17 03:15:31;;;;;;;18.30;14.93;;;11.90;99.90;;;;;;10283013;28;20229;-87
2023/09/17 03:20:33;;;;;;;17.77;14.07;;;11.80;99.90;;;;;;10299710;28;20304;-87
2023/09/17 03:25:37;;;;;;;21.23;15.07;;;11.80;99.90;;;;;;10283912;28;20703;-86
2023/09/17 03:30:40;;;;;;;21.33;15.80;;;11.70;99.90;;;;;;10284181;28;20681;-86
2023/09/17 03:35:43;;;;;;;22.23;15.90;;;11.70;99.90;;;;;;10287559;28;20636;-87
2023/09/17 03:40:46;;;;;;;22.67;15.57;;;11.70;99.90;;;;;;10290938;28;20265;-87
2023/09/17 03:45:51;;;;;;;20.93;15.77;;;11.70;99.90;;;;;;10312278;28;20295;-87
2023/09/17 03:50:53;;;;;;;19.87;15.53;;;11.70;99.90;;;;;;10314800;28;20260;-87
2023/09/17 03:55:56;;;;;;;24.03;17.13;;;11.70;99.90;;;;;;10314710;28;20240;-86
2023/09/17 04:00:59;;;;;;;19.93;15.47;;;11.60;99.90;;;;;;10314259;28;20233;-87
2023/09/17 04:06:03;;;;;;;21.57;15.40;;;11.70;99.90;;;;;;10314206;28;20236;-86
2023/09/17 04:11:06;;;;;;;25.40;17.33;;;11.60;99.90;;;;;;10332112;28;20974;-87
2023/09/17 04:16:09;;;;;;;24.13;15.37;;;11.60;99.90;;;;;;10314965;28;20240;-87
2023/09/17 04:21:12;;;;;;;20.83;15.50;;;11.60;99.90;;;;;;10313735;28;20237;-87
2023/09/17 04:26:16;;;;;;;21.17;15.47;;;11.50;99.90;;;;;;10314004;28;20383;-87
2023/09/17 04:31:18;;;;;;;22.13;16.07;;;11.50;99.90;;;;;;10313040;28;20264;-87
2023/09/17 04:36:22;;;;;;;20.03;15.60;;;11.50;99.90;;;;;;10313337;28;20229;-87
2023/09/17 04:41:26;;;;;;;21.07;15.63;;;11.50;99.90;;;;;;10313654;28;20303;-87
2023/09/17 04:46:30;;;;;;;19.10;14.53;;;11.50;99.90;;;;;;10312360;28;20331;-87
2023/09/17 04:51:36;;;;;;;23.30;15.18;;;11.40;99.90;;;;;;10329858;28;20698;-87
2023/09/17 04:56:39;;;;;;;20.63;15.50;;;11.50;99.90;;;;;;10312682;28;20209;-87
2023/09/17 05:01:42;;;;;;;17.53;14.60;;;11.40;99.90;;;;;;10312744;28;20229;-86
2023/09/17 05:06:45;;;;;;;20.17;15.67;;;11.40;99.90;;;;;;10296629;28;20232;-86
2023/09/17 05:11:47;;;;;;;18.13;14.03;;;11.40;99.90;;;;;;10329626;28;20256;-85
2023/09/17 05:16:51;;;;;;;18.70;14.77;;;11.50;99.90;;;;;;10311877;28;20248;-85
2023/09/17 05:21:53;;;;;;;21.77;14.87;;;11.60;99.90;;;;;;10310800;28;20679;-85
2023/09/17 05:26:56;;;;;;;21.97;16.27;;;11.60;99.90;;;;;;10311522;28;20773;-85
2023/09/17 05:31:58;;;;;;;20.27;15.60;;;11.80;99.90;;;;;;10329472;28;20240;-85
2023/09/17 05:37:02;;;;;;;24.30;16.13;;;11.90;99.90;;;;;;10295338;28;20279;-85
2023/09/17 05:42:06;;;;;;;25.03;17.50;;;12.20;99.90;;;;;;10295405;28;20298;-85
2023/09/17 05:47:09;;;;;;;23.57;16.80;;;12.40;99.90;;;;;;10294646;28;20701;-85
2023/09/17 05:52:11;;;;;;;21.37;16.70;;;12.70;99.90;;;;;;10293576;28;20322;-86
2023/09/17 05:57:15;;;;;;;21.93;16.57;;;12.90;99.90;;;;;;10309979;28;20279;-86
2023/09/17 06:02:18;;;;;;;21.67;17.13;;;13.10;99.90;;;;;;10309596;28;20236;-86
2023/09/17 06:07:21;;;;;;;22.70;17.57;;;13.30;99.90;;;;;;10324986;28;20236;-86
2023/09/17 06:12:24;;;;;;;27.58;18.73;;;13.50;99.90;;;;;;10309574;28;20314;-86
2023/09/17 06:17:26;;;;;;;24.33;19.20;;;13.80;99.90;;;;;;10325787;28;20221;-86
2023/09/17 06:22:29;;;;;;;27.65;18.95;;;14.10;99.90;;;;;;10308109;28;20236;-86
2023/09/17 06:27:33;;;;;;;27.25;17.90;;;14.30;99.90;;;;;;10290617;28;20233;-86
2023/09/17 06:32:37;;;;;;;21.00;17.10;;;14.60;99.90;;;;;;10305243;28;20249;-85
2023/09/17 06:37:39;;;;;;;29.15;18.92;;;14.80;99.90;;;;;;10301184;28;20229;-85
2023/09/17 06:42:42;;;;;;;24.63;17.77;;;15.00;99.90;;;;;;10291848;28;20298;-86
2023/09/17 06:47:46;;;;;;;22.70;16.77;;;15.20;99.90;;;;;;10302256;28;20280;-86
2023/09/17 06:52:49;;;;;;;27.30;17.95;;;15.40;99.90;;;;;;10285070;28;20253;-85
2023/09/17 06:57:52;;;;;;;29.15;19.00;;;15.60;99.90;;;;;;10286566;28;20233;-86
2023/09/17 07:02:55;;;;;;;24.50;18.38;;;15.80;99.90;;;;;;10288794;28;20261;-85
2023/09/17 07:07:57;;;;;;;21.73;16.45;;;15.90;99.90;;;;;;10280909;28;20644;-86
2023/09/17 07:13:00;;;;;;;16.77;13.02;;;16.10;99.90;;;;;;10259842;28;20276;-85
2023/09/17 07:18:03;;;;;;;23.52;16.98;;;16.30;99.90;;;;;;10290065;28;20275;-85
2023/09/17 07:23:08;;;;;;;21.77;17.23;;;16.50;99.90;;;;;;10278975;28;20693;-85
2023/09/17 07:28:10;;;;;;;17.65;14.98;;;16.80;99.90;;;;;;10294306;28;21094;-84
2023/09/17 07:33:13;;;;;;;18.42;15.35;;;17.10;99.90;;;;;;10292968;28;20332;-85
2023/09/17 07:38:15;;;;;;;18.98;13.50;;;17.30;99.90;;;;;;10296599;28;20311;-84
2023/09/17 07:43:18;;;;;;;14.95;13.15;;;17.60;99.90;;;;;;10298414;28;20276;-85
2023/09/17 07:48:23;;;;;;;20.80;13.63;;;17.90;99.90;;;;;;10294183;28;20233;-85
2023/09/17 07:53:26;;;;;;;16.15;13.48;;;18.20;99.90;;;;;;10296175;28;20265;-86
2023/09/17 07:58:29;;;;;;;16.75;13.35;;;18.50;99.90;;;;;;10276917;28;20318;-86
2023/09/17 08:03:31;;;;;;;17.00;12.05;;;18.80;99.90;;;;;;10292370;28;20262;-85
2023/09/17 08:08:34;;;;;;;14.60;10.70;;;19.10;99.90;;;;;;10292160;28;20603;-85
2023/09/17 08:13:36;;;;;;;13.80;11.85;;;19.50;99.90;;;;;;10290793;28;20260;-85
2023/09/17 08:18:39;;;;;;;14.35;11.85;;;19.80;99.90;;;;;;10290698;28;20288;-85
2023/09/17 08:23:42;;;;;;;10.90;9.52;;;20.00;99.90;;;;;;10289737;28;20323;-85
2023/09/17 08:28:45;;;;;;;11.23;9.18;;;20.30;99.90;;;;;;10273187;28;20264;-85
2023/09/17 08:33:48;;;;;;;11.73;9.63;;;20.50;99.90;;;;;;10293347;28;20697;-85
2023/09/17 08:38:52;;;;;;;8.75;7.90;;;20.80;99.90;;;;;;10290145;28;20226;-85
2023/09/17 08:43:54;;;;;;;7.75;6.53;;;20.90;99.90;;;;;;10272743;28;20264;-85
2023/09/17 08:48:58;;;;;;;10.98;6.82;;;21.20;99.90;;;;;;10289806;28;20268;-85
2023/09/17 08:54:10;;;;;;;7.80;6.47;;;21.50;99.90;;;;;;10289950;28;21005;-85
2023/09/17 08:59:22;;;;;;;9.77;6.68;;;21.80;98.80;;;;;;10290365;28;20228;-86
2023/09/17 09:04:27;;;;;;;10.15;8.13;;;22.00;97.20;;;;;;10288723;28;20268;-86
2023/09/17 09:09:31;;;;;;;6.78;6.13;;;22.10;94.60;;;;;;10304574;28;20303;-85
2023/09/17 09:14:33;;;;;;;8.30;6.53;;;22.30;95.30;;;;;;10289206;28;20323;-85
2023/09/17 09:19:36;;;;;;;8.07;5.07;;;22.50;95.10;;;;;;10304242;28;20312;-85
2023/09/17 09:24:47;;;;;;;8.32;5.72;;;22.70;94.70;;;;;;10286417;28;20268;-85
2023/09/17 09:29:50;;;;;;;9.13;8.18;;;22.90;95.50;;;;;;10286597;28;20956;-85
2023/09/17 09:34:52;;;;;;;6.90;5.45;;;23.00;92.10;;;;;;10302991;28;20253;-86
2023/09/17 09:39:56;;;;;;;9.43;8.38;;;23.20;94.00;;;;;;10287103;28;20311;-87
2023/09/17 09:44:58;;;;;;;10.65;7.47;;;23.30;91.40;;;;;;10285787;28;20273;-87
2023/09/17 09:50:02;;;;;;;8.38;6.53;;;23.30;91.30;;;;;;10286202;28;20646;-87
2023/09/17 09:55:06;;;;;;;6.80;6.15;;;23.40;92.40;;;;;;10285584;28;20249;-87
2023/09/17 10:00:18;;;;;;;6.82;5.60;;;23.60;93.20;;;;;;10285465;28;20690;-87
2023/09/17 10:05:36;;;;;;;7.57;6.45;;;23.70;91.80;;;;;;10283513;28;20277;-86
2023/09/17 10:10:41;;;;;;;8.50;6.30;;;23.80;92.50;;;;;;10277620;28;20241;-85
2023/09/17 10:15:45;;;;;;;6.38;5.78;;;23.90;91.00;;;;;;10285213;28;20280;-85
2023/09/17 10:20:51;;;;;;;8.32;5.50;;;23.90;90.80;;;;;;10300553;28;20228;-85
2023/09/17 10:25:58;;;;;;;6.93;4.95;;;24.00;91.10;;;;;;10281367;28;20668;-86
2023/09/17 10:31:01;;;;;;;5.88;5.38;;;24.00;90.80;;;;;;10281527;28;20229;-84
2023/09/17 10:36:07;;;;;;;5.75;4.97;;;24.10;91.00;;;;;;10285725;28;20687;-86
2023/09/17 10:41:11;;;;;;;8.45;5.38;;;24.20;90.50;;;;;;10286092;28;20361;-85
2023/09/17 10:46:14;;;;;;;5.20;4.63;;;24.30;90.50;;;;;;10311218;28;20323;-85
2023/09/17 10:51:18;;;;;;;5.85;5.05;;;24.30;89.40;;;;;;10308673;28;20240;-86
2023/09/17 10:56:21;;;;;;;6.00;5.40;;;24.30;88.80;;;;;;10325913;28;20252;-86
2023/09/17 11:01:32;;;;;;;6.25;4.75;;;24.30;88.00;;;;;;10325685;28;20240;-85
2023/09/17 11:06:35;;;;;;;6.32;4.60;;;24.30;86.50;;;;;;10325510;28;20240;-85
2023/09/17 11:11:40;;;;;;;4.80;4.40;;;24.40;85.60;;;;;;10324729;28;20248;-85
2023/09/17 11:16:47;;;;;;;6.03;4.07;;;24.40;85.20;;;;;;10308319;28;20345;-85
2023/09/17 11:22:08;;;;;;;6.05;5.50;;;24.50;85.60;;;;;;10325213;28;20229;-85
2023/09/17 11:27:12;;;;;;;6.80;5.13;;;24.50;83.10;;;;;;10324803;28;20252;-85
2023/09/17 11:32:21;;;;;;;7.18;5.07;;;24.50;82.60;;;;;;10324472;28;20295;-87
2023/09/17 11:37:25;;;;;;;4.32;3.50;;;24.50;82.40;;;;;;10324852;28;20229;-87
2023/09/17 11:42:27;;;;;;;4.28;3.33;;;24.50;83.50;;;;;;10324713;28;20651;-87
2023/09/17 11:47:30;;;;;;;6.05;4.22;;;24.40;83.10;;;;;;10307930;28;20743;-87
2023/09/17 11:52:33;;;;;;;9.27;4.43;;;24.40;81.90;;;;;;10307391;28;20272;-87
2023/09/17 11:57:36;;;;;;;4.75;4.07;;;24.40;79.90;;;;;;10329055;28;20307;-87
2023/09/17 12:02:39;;;;;;;5.10;4.30;;;24.40;82.30;;;;;;10330540;28;20298;-86
2023/09/17 12:07:43;;;;;;;6.53;4.32;;;24.40;81.10;;;;;;10291282;28;20678;-86
2023/09/17 12:12:57;;;;;;;4.10;3.80;;;24.50;81.80;;;;;;10291289;28;20253;-86
2023/09/17 12:18:00;;;;;;;7.03;4.88;;;24.70;80.80;;;;;;10291198;28;20252;-86
2023/09/17 12:23:16;;;;;;;6.53;4.63;;;24.90;79.30;;;;;;10290857;28;20229;-88
2023/09/17 12:28:27;;;;;;;4.93;3.88;;;25.10;77.60;;;;;;10290028;28;20252;-88
2023/09/17 12:33:30;;;;;;;7.75;4.05;;;25.30;72.50;;;;;;10290686;28;20252;-86
2023/09/17 12:38:32;;;;;;;5.13;3.95;;;25.40;71.50;;;;;;10272444;28;20296;-86
2023/09/17 12:43:35;;;;;;;4.47;4.05;;;25.40;68.50;;;;;;10277282;28;20261;-86
2023/09/17 12:48:37;;;;;;;7.03;3.88;;;25.60;68.10;;;;;;10330658;28;20813;-86
2023/09/17 12:53:42;;;;;;;5.50;3.97;;;25.70;71.00;;;;;;10329789;28;20291;-86
2023/09/17 12:58:49;;;;;;;3.80;3.50;;;25.70;65.60;;;;;;10330149;28;20233;-86
2023/09/17 13:04:02;;;;;;;4.60;4.20;;;25.70;64.60;;;;;;10312328;28;21037;-86
2023/09/17 13:09:08;;;;;;;4.93;4.43;;;25.70;65.30;;;;;;10327759;28;20259;-87
2023/09/17 13:14:11;;;;;;;5.70;3.85;;;25.90;63.50;;;;;;10311171;28;21068;-86
2023/09/17 13:19:14;;;;;;;3.90;3.50;;;25.90;62.90;;;;;;10328885;28;20229;-86
2023/09/17 13:24:17;;;;;;;4.10;3.70;;;26.00;59.70;;;;;;10311581;28;20224;-87
2023/09/17 13:29:20;;;;;;;4.93;4.53;;;26.10;56.90;;;;;;10328814;28;20241;-87
2023/09/17 13:34:22;;;;;;;3.30;3.00;;;26.00;54.90;;;;;;10329120;28;20248;-87
2023/09/17 13:39:25;;;;;;;3.63;3.33;;;25.80;54.90;;;;;;10311427;28;20224;-87
2023/09/17 13:44:27;;;;;;;5.13;3.75;;;25.80;55.50;;;;;;10294753;28;20268;-87
2023/09/17 13:49:30;;;;;;;3.88;3.58;;;25.80;57.60;;;;;;10324069;28;20240;-86
2023/09/17 13:54:33;;;;;;;3.55;3.25;;;25.80;57.50;;;;;;10309554;28;20295;-85
2023/09/17 13:59:36;;;;;;;5.25;3.97;;;25.80;60.30;;;;;;10326668;28;20237;-86
2023/09/17 14:04:38;;;;;;;5.53;3.88;;;25.70;57.90;;;;;;10271480;28;20238;-86
2023/09/17 14:09:41;;;;;;;5.07;3.75;;;25.60;55.80;;;;;;10247244;29;20906;-86
2023/09/17 14:14:44;;;;;;;4.97;3.85;;;25.50;53.20;;;;;;10246676;29;20265;-86
2023/09/17 14:19:46;;;;;;;2.88;2.60;;;25.40;54.50;;;;;;10228852;29;20284;-86
2023/09/17 14:24:49;;;;;;;4.20;3.22;;;25.40;53.30;;;;;;10246472;28;20345;-86
2023/09/17 14:29:51;;;;;;;5.78;3.88;;;25.40;56.20;;;;;;10246863;29;20396;-86
2023/09/17 14:34:55;;;;;;;4.72;4.32;;;25.30;55.10;;;;;;10246724;29;20285;-86
2023/09/17 14:39:57;;;;;;;5.07;4.07;;;25.10;55.60;;;;;;10246897;28;20701;-86
2023/09/17 14:45:03;;;;;;;3.33;3.03;;;25.10;55.80;;;;;;10245305;28;20650;-86
2023/09/17 14:50:08;;;;;;;5.05;4.65;;;25.00;56.90;;;;;;10245441;28;20237;-86
2023/09/17 14:55:10;;;;;;;4.40;4.10;;;25.10;57.60;;;;;;10246268;29;20289;-86
2023/09/17 15:00:14;;;;;;;3.47;3.17;;;24.90;58.20;;;;;;10250399;28;20618;-85
2023/09/17 15:05:17;;;;;;;6.75;3.78;;;24.90;59.50;;;;;;10307076;28;20238;-86
2023/09/17 15:10:19;;;;;;;4.70;3.63;;;25.00;60.50;;;;;;10246087;28;20246;-84
2023/09/17 15:15:21;;;;;;;4.28;3.90;;;25.00;60.20;;;;;;10246160;29;20246;-86
2023/09/17 15:20:25;;;;;;;6.85;4.25;;;25.10;60.20;;;;;;10280845;28;20237;-86
2023/09/17 15:25:27;;;;;;;3.55;3.20;;;25.10;60.40;;;;;;10285457;28;20237;-86
2023/09/17 15:30:30;;;;;;;4.60;3.47;;;25.10;60.30;;;;;;10288816;28;20245;-86
2023/09/17 15:35:32;;;;;;;4.80;4.20;;;25.10;59.60;;;;;;10307893;28;20257;-85
2023/09/17 15:40:35;;;;;;;4.43;4.03;;;25.10;58.10;;;;;;10292040;28;20241;-85
2023/09/17 15:45:38;;;;;;;3.35;3.10;;;25.10;58.80;;;;;;10302737;28;20708;-86
2023/09/17 15:50:41;;;;;;;4.75;3.10;;;25.10;58.70;;;;;;10292542;28;20241;-85
2023/09/17 15:55:44;;;;;;;4.50;4.10;;;25.10;59.80;;;;;;10291913;28;20346;-85
2023/09/17 16:00:46;;;;;;;3.10;2.80;;;25.00;60.00;;;;;;10275542;28;20229;-85
2023/09/17 16:05:49;;;;;;;4.05;3.38;;;25.00;60.60;;;;;;10295255;28;20271;-85
2023/09/17 16:10:52;;;;;;;3.08;2.88;;;24.90;60.50;;;;;;10291787;28;20607;-85
2023/09/17 16:15:54;;;;;;;7.55;3.97;;;24.80;61.80;;;;;;10296000;28;20248;-85
2023/09/17 16:20:57;;;;;;;3.70;3.35;;;24.70;64.50;;;;;;10310171;28;20763;-86
2023/09/17 16:26:00;;;;;;;3.83;3.40;;;24.60;64.80;;;;;;10291239;28;20241;-85
2023/09/17 16:31:02;;;;;;;5.70;3.42;;;24.40;74.90;;;;;;10273808;28;20237;-86
2023/09/17 16:36:06;;;;;;;5.57;3.55;;;24.10;82.70;;;;;;10276470;28;20870;-86
2023/09/17 16:41:08;;;;;;;4.50;3.25;;;23.70;90.20;;;;;;10300930;28;20297;-86
2023/09/17 16:46:11;;;;;;;4.85;4.07;;;23.40;91.90;;;;;;10330665;28;20293;-86
2023/09/17 16:51:14;;;;;;;6.57;4.15;;;23.10;93.20;;;;;;10330260;28;20233;-86
2023/09/17 16:56:17;;;;;;;8.90;4.28;;;22.70;92.90;;;;;;10308644;28;20951;-86
2023/09/17 17:01:19;;;;;;;5.55;3.60;;;22.40;94.40;;;;;;10287985;28;20636;-86
2023/09/17 17:06:22;;;;;;;4.32;3.92;;;22.00;95.50;;;;;;10290460;28;20288;-86
2023/09/17 17:11:24;;;;;;;7.75;4.93;;;21.70;95.70;;;;;;10289968;28;20245;-87
2023/09/17 17:16:27;;;;;;;6.65;3.97;;;21.50;96.00;;;;;;10289822;28;20265;-85
2023/09/17 17:21:30;;;;;;;9.20;3.95;;;21.10;99.90;;;;;;10289173;28;20226;-85
2023/09/17 17:26:36;;;;;;;15.27;3.70;;;20.70;99.90;;;;;;10288454;28;20307;-88
2023/09/17 17:31:38;;;;;;;12.30;5.38;;;20.50;99.90;;;;;;10288743;28;20626;-88
2023/09/17 17:36:42;;;;;;;11.25;4.93;;;20.10;99.90;;;;;;10287321;28;20253;-85
2023/09/17 17:41:44;;;;;;;12.55;4.95;;;19.60;99.90;;;;;;10286243;28;20256;-85
2023/09/17 17:46:47;;;;;;;7.50;4.43;;;19.30;99.90;;;;;;10301587;28;20315;-85
2023/09/17 17:51:49;;;;;;;13.88;5.72;;;19.30;99.90;;;;;;10282425;28;20299;-84
2023/09/17 17:56:52;;;;;;;9.30;5.30;;;19.20;99.90;;;;;;10290047;28;20905;-85
2023/09/17 18:01:55;;;;;;;6.30;5.20;;;19.10;99.90;;;;;;10306935;28;20302;-84
2023/09/17 18:06:58;;;;;;;6.97;5.28;;;19.00;99.90;;;;;;10291478;28;20689;-85
2023/09/17 18:12:02;;;;;;;10.80;4.25;;;18.90;99.90;;;;;;10289662;28;20245;-84
2023/09/17 18:17:05;;;;;;;10.10;5.32;;;18.90;99.90;;;;;;10298304;28;20264;-85
2023/09/17 18:22:07;;;;;;;6.22;4.32;;;18.70;99.90;;;;;;10290056;28;20249;-83
2023/09/17 18:27:10;;;;;;;11.65;5.50;;;18.70;99.90;;;;;;10285958;28;20241;-84
2023/09/17 18:32:13;;;;;;;12.25;4.97;;;18.50;99.90;;;;;;10289479;28;20287;-85
2023/09/17 18:37:15;;;;;;;15.38;6.82;;;18.50;99.90;;;;;;9946115;28;10000082;-85
2023/09/17 18:42:20;;;;;;;9.95;5.55;;;18.30;99.90;;;;;;10288182;28;20797;-85
2023/09/17 18:47:22;;;;;;;10.07;5.20;;;18.20;99.90;;;;;;10319354;28;20264;-85
2023/09/17 18:52:27;;;;;;;8.85;5.35;;;18.20;99.90;;;;;;10292660;28;20656;-85
2023/09/17 18:57:29;;;;;;;11.45;6.10;;;18.10;99.90;;;;;;10294798;28;20277;-85
2023/09/17 19:02:34;;;;;;;9.25;5.28;;;17.90;99.90;;;;;;10253122;28;20292;-85
2023/09/17 19:07:39;;;;;;;13.25;5.90;;;17.80;99.90;;;;;;10248754;28;20276;-85
2023/09/17 19:12:42;;;;;;;9.48;4.88;;;17.80;99.90;;;;;;10264111;28;20252;-85
2023/09/17 19:17:44;;;;;;;7.57;5.05;;;17.80;99.90;;;;;;10273072;28;20723;-85
2023/09/17 19:22:47;;;;;;;20.05;5.63;;;17.70;99.90;;;;;;10272558;28;20743;-85
2023/09/17 19:27:49;;;;;;;19.75;5.97;;;17.60;99.90;;;;;;10287567;28;20692;-85
2023/09/17 19:32:52;;;;;;;10.35;4.50;;;17.50;99.90;;;;;;10290705;28;20250;-85
2023/09/17 19:37:54;;;;;;;11.27;5.88;;;17.50;99.90;;;;;;10255820;28;20249;-85
2023/09/17 19:42:57;;;;;;;10.35;4.82;;;17.40;99.90;;;;;;10306105;28;20237;-85
2023/09/17 19:48:03;;;;;;;16.95;6.90;;;17.40;99.90;;;;;;10291396;28;20265;-85
2023/09/17 19:53:06;;;;;;;11.90;5.57;;;17.30;99.90;;;;;;10275554;28;20233;-85
2023/09/17 19:58:10;;;;;;;17.08;6.85;;;17.10;99.90;;;;;;10287038;28;20320;-86
2023/09/17 20:03:12;;;;;;;13.95;6.60;;;17.00;99.90;;;;;;10288310;28;20237;-85
2023/09/17 20:08:15;;;;;;;19.77;7.57;;;17.00;99.90;;;;;;10290269;28;20233;-86
2023/09/17 20:13:17;;;;;;;16.35;5.93;;;16.90;99.90;;;;;;10291127;28;20237;-86
2023/09/17 20:18:20;;;;;;;21.73;8.80;;;16.80;99.90;;;;;;10290382;28;20260;-86
2023/09/17 20:23:22;;;;;;;16.23;7.07;;;16.70;99.90;;;;;;9959748;28;9999984;-86
2023/09/17 20:28:25;;;;;;;10.32;6.22;;;16.60;99.90;;;;;;10287962;28;20269;-86
2023/09/17 20:33:28;;;;;;;11.68;7.13;;;16.60;99.90;;;;;;10286138;28;20301;-86
2023/09/17 20:38:30;;;;;;;23.33;8.10;;;16.50;99.90;;;;;;10285127;28;20715;-85
2023/09/17 20:43:33;;;;;;;24.02;9.20;;;16.50;99.90;;;;;;10290803;28;20319;-86
2023/09/17 20:48:36;;;;;;;16.02;7.93;;;16.50;99.90;;;;;;10294071;28;20281;-85
2023/09/17 20:53:38;;;;;;;20.55;7.82;;;16.40;99.90;;;;;;10286258;28;20237;-86
2023/09/17 20:58:41;;;;;;;14.15;7.72;;;16.20;99.90;;;;;;10292622;28;20252;-86
2023/09/17 21:03:44;;;;;;;13.75;7.18;;;16.10;99.90;;;;;;10309853;28;20232;-86
2023/09/17 21:08:47;;;;;;;13.40;7.20;;;16.00;99.90;;;;;;10286354;28;20734;-88
2023/09/17 21:13:50;;;;;;;18.98;8.30;;;16.00;99.90;;;;;;10285154;28;20292;-86
2023/09/17 21:18:52;;;;;;;12.23;7.97;;;16.00;99.90;;;;;;10273906;28;20293;-86
2023/09/17 21:23:56;;;;;;;14.45;6.90;;;15.90;99.90;;;;;;10285717;28;20225;-86
2023/09/17 21:28:58;;;;;;;12.50;7.20;;;15.80;99.90;;;;;;10267358;28;20307;-85
2023/09/17 21:34:01;;;;;;;15.82;7.88;;;15.80;99.90;;;;;;10267996;28;20237;-86
2023/09/17 21:39:03;;;;;;;8.85;5.93;;;15.80;99.90;;;;;;10284648;28;20257;-86
2023/09/17 21:44:06;;;;;;;9.73;6.65;;;15.70;99.90;;;;;;10277485;28;20785;-85
2023/09/17 21:49:09;;;;;;;5.50;4.32;;;15.60;99.90;;;;;;10280996;28;20763;-86
2023/09/17 21:54:12;;;;;;;10.15;6.65;;;15.80;99.90;;;;;;10284400;28;20241;-86
2023/09/17 21:59:14;;;;;;;14.32;7.53;;;15.70;99.90;;;;;;10286140;28;20726;-86
2023/09/17 22:04:16;;;;;;;13.32;9.18;;;15.50;99.90;;;;;;10282415;28;20265;-85
2023/09/17 22:09:19;;;;;;;9.63;8.20;;;15.10;99.90;;;;;;10284423;28;20229;-86
2023/09/17 22:14:21;;;;;;;13.27;8.73;;;14.60;99.90;;;;;;10286614;28;20308;-87
2023/09/17 22:19:24;;;;;;;10.52;6.20;;;14.30;99.90;;;;;;10284943;28;20319;-86
2023/09/17 22:24:27;;;;;;;17.85;8.23;;;14.60;99.90;;;;;;10286727;28;20225;-86
2023/09/17 22:29:29;;;;;;;11.27;7.53;;;14.80;99.90;;;;;;10286702;28;20244;-85
2023/09/17 22:34:32;;;;;;;7.68;6.93;;;14.80;99.90;;;;;;10286181;28;20654;-86
2023/09/17 22:39:38;;;;;;;7.97;7.18;;;14.90;99.90;;;;;;10285835;28;20296;-86
2023/09/17 22:44:41;;;;;;;9.90;6.93;;;15.00;99.90;;;;;;10299220;28;20782;-86
2023/09/17 22:49:46;;;;;;;13.43;8.27;;;15.00;99.90;;;;;;10326148;28;20265;-86
2023/09/17 22:54:48;;;;;;;11.68;8.35;;;14.90;99.90;;;;;;10325587;28;20650;-86
2023/09/17 22:59:51;;;;;;;10.68;8.18;;;14.80;99.90;;;;;;10326181;28;20236;-86
2023/09/17 23:04:54;;;;;;;8.70;7.10;;;14.80;99.90;;;;;;10324472;28;20264;-86
2023/09/17 23:09:57;;;;;;;8.95;7.60;;;14.90;99.90;;;;;;10325998;28;20232;-85
2023/09/17 23:14:59;;;;;;;14.45;7.65;;;14.80;99.90;;;;;;10325756;28;20241;-86
2023/09/17 23:20:07;;;;;;;12.93;7.00;;;14.80;99.90;;;;;;10306688;28;20240;-86
2023/09/17 23:25:10;;;;;;;8.27;6.88;;;14.90;99.90;;;;;;10324560;28;20240;-86
2023/09/17 23:30:15;;;;;;;11.18;7.78;;;14.70;99.90;;;;;;10325540;28;20236;-86
2023/09/17 23:35:18;;;;;;;12.35;8.00;;;14.70;99.90;;;;;;10324491;28;20317;-86
2023/09/17 23:40:24;;;;;;;8.35;6.82;;;14.60;99.90;;;;;;10308083;28;20236;-86
2023/09/17 23:45:26;;;;;;;10.65;8.10;;;14.60;99.90;;;;;;10324787;28;20268;-86
2023/09/17 23:50:29;;;;;;;11.30;8.70;;;14.60;99.90;;;;;;10313326;28;20279;-86
2023/09/17 23:55:31;;;;;;;8.45;7.55;;;14.50;99.90;;;;;;10332259;28;20248;-87
